createdAt,value
2022-09-20T00:02:00.804Z,3.75
2022-09-20T00:04:29.935Z,3.28
2022-09-20T00:06:58.954Z,3.60
2022-09-20T00:09:27.874Z,4.18
2022-09-20T00:11:58.230Z,3.58
2022-09-20T00:14:27.577Z,3.85
2022-09-20T00:16:56.675Z,3.83
2022-09-20T00:19:25.655Z,3.70
2022-09-20T00:21:54.705Z,3.92
2022-09-20T00:24:23.691Z,3.72
2022-09-20T00:26:52.761Z,4.10
2022-09-20T00:29:23.416Z,3.80
2022-09-20T00:31:52.517Z,3.35
2022-09-20T00:34:39.125Z,3.38
2022-09-20T00:37:08.071Z,3.78
2022-09-20T00:39:37.197Z,3.67
2022-09-20T00:42:06.835Z,2.78
2022-09-20T00:44:56.853Z,3.85
2022-09-20T00:47:37.115Z,3.47
2022-09-20T00:50:25.513Z,3.35
2022-09-20T00:53:00.072Z,3.40
2022-09-20T00:55:30.025Z,3.25
2022-09-20T00:58:01.171Z,3.60
2022-09-20T01:01:09.910Z,3.90
2022-09-20T01:03:42.135Z,3.30
2022-09-20T01:06:15.165Z,3.20
2022-09-20T01:08:48.596Z,3.95
2022-09-20T01:11:17.721Z,3.15
2022-09-20T01:13:46.813Z,3.88
2022-09-20T01:16:18.977Z,3.25
2022-09-20T01:18:50.727Z,3.35
2022-09-20T01:21:21.225Z,3.75
2022-09-20T01:23:57.162Z,3.05
2022-09-20T01:26:47.800Z,3.58
2022-09-20T01:29:38.513Z,3.33
2022-09-20T01:32:14.266Z,3.95
2022-09-20T01:34:48.613Z,3.28
2022-09-20T01:37:26.507Z,3.60
2022-09-20T01:40:05.732Z,3.28
2022-09-20T01:42:40.087Z,3.17
2022-09-20T01:45:20.792Z,3.22
2022-09-20T01:47:59.174Z,2.92
2022-09-20T01:50:36.478Z,3.72
2022-09-20T01:53:39.969Z,2.88
2022-09-20T01:56:56.995Z,3.10
2022-09-20T02:00:05.717Z,3.00
2022-09-20T02:03:47.640Z,2.67
2022-09-20T02:06:46.437Z,3.20
2022-09-20T02:09:46.741Z,3.05
2022-09-20T02:12:36.973Z,3.42
2022-09-20T02:15:19.782Z,3.05
2022-09-20T02:18:00.004Z,3.30
2022-09-20T02:20:45.619Z,3.10
2022-09-20T02:23:26.617Z,3.30
2022-09-20T02:26:20.022Z,3.75
2022-09-20T02:29:02.628Z,3.65
2022-09-20T02:31:54.688Z,3.58
2022-09-20T02:34:55.313Z,3.40
2022-09-20T02:38:07.494Z,3.60
2022-09-20T02:41:19.658Z,2.80
2022-09-20T02:43:58.902Z,3.40
2022-09-20T02:46:31.710Z,3.30
2022-09-20T02:49:08.821Z,3.15
2022-09-20T02:51:42.852Z,3.03
2022-09-20T02:54:27.037Z,3.00
2022-09-20T02:57:01.762Z,3.13
2022-09-20T02:59:40.223Z,3.38
2022-09-20T03:02:20.220Z,3.70
2022-09-20T03:05:07.578Z,3.40
2022-09-20T03:07:51.810Z,3.20
2022-09-20T03:10:33.057Z,2.78
2022-09-20T03:13:24.920Z,3.17
2022-09-20T03:16:06.031Z,3.10
2022-09-20T03:18:44.462Z,2.95
2022-09-20T03:21:30.502Z,2.63
2022-09-20T03:24:11.242Z,3.08
2022-09-20T03:26:54.259Z,4.38
2022-09-20T03:29:39.542Z,3.33
2022-09-20T03:32:33.288Z,2.92
2022-09-20T03:35:23.359Z,4.03
2022-09-20T03:38:16.900Z,2.78
2022-09-20T03:41:33.683Z,3.40
2022-09-20T03:44:19.647Z,3.40
2022-09-20T03:46:52.909Z,3.78
2022-09-20T03:49:54.976Z,2.90
2022-09-20T03:52:54.548Z,3.10
2022-09-20T03:56:00.961Z,3.40
2022-09-20T03:58:48.589Z,3.97
2022-09-20T04:01:45.193Z,5.97
2022-09-20T04:04:24.522Z,4.88
2022-09-20T04:07:14.501Z,3.22
2022-09-20T04:10:13.733Z,3.33
2022-09-20T04:13:00.894Z,3.25
2022-09-20T04:15:40.381Z,3.42
2022-09-20T04:18:34.431Z,2.90
2022-09-20T04:21:11.426Z,2.92
2022-09-20T04:23:51.059Z,3.53
2022-09-20T04:26:28.259Z,3.30
2022-09-20T04:29:11.361Z,3.25
2022-09-20T04:31:50.909Z,3.30
2022-09-20T04:34:56.007Z,2.60
2022-09-20T04:37:33.235Z,3.38
2022-09-20T04:40:21.609Z,3.53
2022-09-20T04:43:33.043Z,2.83
2022-09-20T04:46:35.573Z,3.30
2022-09-20T04:49:49.790Z,3.28
2022-09-20T04:53:18.952Z,3.17
2022-09-20T04:55:53.008Z,3.17
2022-09-20T04:58:46.971Z,3.25
2022-09-20T05:02:06.371Z,2.88
2022-09-20T05:05:35.762Z,3.25
2022-09-20T05:08:51.761Z,3.65
2022-09-20T05:11:53.592Z,3.33
2022-09-20T05:15:21.021Z,3.35
2022-09-20T05:18:15.347Z,3.40
2022-09-20T05:21:09.521Z,3.08
2022-09-20T05:24:13.226Z,3.30
2022-09-20T05:26:57.931Z,3.45
2022-09-20T05:29:42.908Z,3.00
2022-09-20T05:32:23.726Z,3.70
2022-09-20T05:35:00.245Z,3.10
2022-09-20T05:37:42.071Z,3.85
2022-09-20T05:40:28.985Z,3.20
2022-09-20T05:43:11.196Z,3.97
2022-09-20T05:46:04.204Z,3.92
2022-09-20T05:48:41.648Z,3.70
2022-09-20T05:51:34.888Z,3.78
2022-09-20T05:55:02.419Z,3.60
2022-09-20T05:57:48.861Z,4.22
2022-09-20T06:00:21.726Z,4.38
2022-09-20T06:02:59.584Z,3.33
2022-09-20T06:05:43.656Z,3.55
2022-09-20T06:08:45.127Z,3.50
2022-09-20T06:11:46.740Z,3.83
2022-09-20T06:14:32.790Z,3.90
2022-09-20T06:17:16.230Z,4.10
2022-09-20T06:19:52.801Z,4.78
2022-09-20T06:22:28.892Z,4.38
2022-09-20T06:25:04.624Z,4.20
2022-09-20T06:27:39.369Z,3.85
2022-09-20T06:30:18.700Z,3.38
2022-09-20T06:32:59.401Z,3.45
2022-09-20T06:35:37.042Z,4.60
2022-09-20T06:39:01.960Z,3.15
2022-09-20T06:41:34.070Z,3.33
2022-09-20T06:44:07.075Z,3.40
2022-09-20T06:46:38.625Z,3.05
2022-09-20T06:49:09.641Z,3.40
2022-09-20T06:51:40.443Z,4.28
2022-09-20T06:54:17.970Z,3.90
2022-09-20T06:56:48.156Z,3.50
2022-09-20T06:59:17.145Z,3.40
2022-09-20T07:01:47.604Z,3.20
2022-09-20T07:04:16.721Z,3.92
2022-09-20T07:06:45.734Z,3.70
2022-09-20T07:09:14.811Z,4.00
2022-09-20T07:11:45.025Z,3.17
2022-09-20T07:14:15.542Z,2.80
2022-09-20T07:16:44.575Z,3.60
2022-09-20T07:19:15.046Z,3.20
2022-09-20T07:21:44.395Z,3.20
2022-09-20T07:24:15.055Z,3.58
2022-09-20T07:26:56.815Z,4.43
2022-09-20T07:29:27.254Z,3.20
2022-09-20T07:31:58.646Z,3.78
2022-09-20T07:34:29.488Z,3.75
2022-09-20T07:36:59.650Z,4.68
2022-09-20T07:39:28.724Z,3.75
2022-09-20T07:41:57.810Z,3.70
2022-09-20T07:44:27.920Z,3.40
2022-09-20T07:46:59.053Z,4.63
2022-09-20T07:49:30.906Z,3.22
2022-09-20T07:52:00.290Z,4.72
2022-09-20T07:54:30.134Z,3.85
2022-09-20T07:56:59.202Z,3.75
2022-09-20T07:59:28.184Z,3.53
2022-09-20T08:01:58.864Z,4.38
2022-09-20T08:04:29.626Z,4.78
2022-09-20T08:06:58.787Z,3.92
2022-09-20T08:09:28.108Z,3.95
2022-09-20T08:11:57.668Z,4.03
2022-09-20T08:14:27.314Z,3.30
2022-09-20T08:17:00.209Z,3.30
2022-09-20T08:19:30.734Z,4.20
2022-09-20T08:21:59.740Z,3.92
2022-09-20T08:24:28.785Z,3.65
2022-09-20T08:26:57.802Z,4.47
2022-09-20T08:29:27.051Z,4.03
2022-09-20T08:31:58.343Z,2.75
2022-09-20T08:34:27.353Z,4.55
2022-09-20T08:36:57.755Z,2.30
2022-09-20T08:42:33.917Z,2.72
2022-09-20T08:45:22.329Z,4.05
2022-09-20T08:47:58.909Z,4.35
2022-09-20T08:50:29.064Z,2.95
2022-09-20T08:53:04.966Z,2.90
2022-09-20T08:55:37.392Z,2.65
2022-09-20T08:58:09.499Z,3.17
2022-09-20T09:00:40.351Z,3.38
2022-09-20T09:03:16.834Z,2.80
2022-09-20T09:05:48.613Z,2.38
2022-09-20T09:08:23.682Z,2.65
2022-09-20T09:10:56.318Z,2.35
2022-09-20T09:13:33.282Z,2.90
2022-09-20T09:16:07.566Z,2.70
2022-09-20T09:18:41.402Z,2.20
2022-09-20T09:21:19.317Z,2.15
2022-09-20T09:23:54.351Z,2.47
2022-09-20T09:26:25.966Z,2.83
2022-09-20T09:29:18.539Z,2.67
2022-09-20T09:31:49.934Z,3.30
2022-09-20T09:34:31.376Z,2.65
2022-09-20T09:37:00.810Z,2.50
2022-09-20T09:39:35.450Z,2.83
2022-09-20T09:42:21.964Z,2.00
2022-09-20T09:44:51.076Z,2.67
2022-09-20T09:47:28.586Z,2.50
2022-09-20T09:50:02.604Z,2.25
2022-09-20T09:52:35.417Z,2.83
2022-09-20T09:55:07.473Z,2.67
2022-09-20T09:57:53.920Z,2.10
2022-09-20T10:00:24.760Z,2.63
2022-09-20T10:03:30.055Z,4.47
2022-09-20T10:06:16.623Z,2.22
2022-09-20T10:09:13.050Z,2.00
2022-09-20T10:12:00.638Z,2.10
2022-09-20T10:14:45.602Z,2.25
2022-09-20T10:17:39.081Z,2.15
2022-09-20T10:20:28.227Z,2.40
2022-09-20T10:23:39.864Z,2.30
2022-09-20T10:26:23.412Z,1.70
2022-09-20T10:29:08.379Z,2.30
2022-09-20T10:31:52.307Z,2.85
2022-09-20T10:34:49.130Z,2.17
2022-09-20T10:37:29.021Z,2.05
2022-09-20T10:40:16.882Z,1.92
2022-09-20T10:43:07.988Z,2.40
2022-09-20T10:48:43.650Z,2.30
2022-09-20T10:51:19.722Z,2.05
2022-09-20T10:53:57.649Z,2.45
2022-09-20T10:56:32.353Z,2.30
2022-09-20T10:59:34.079Z,2.78
2022-09-20T11:02:34.102Z,2.60
2022-09-20T11:05:26.623Z,2.55
2022-09-20T11:08:05.726Z,2.20
2022-09-20T11:10:39.105Z,2.80
2022-09-20T11:13:20.745Z,2.10
2022-09-20T11:15:59.536Z,2.80
2022-09-20T11:18:40.514Z,2.40
2022-09-20T11:21:19.227Z,2.08
2022-09-20T11:23:57.150Z,2.00
2022-09-20T11:26:32.296Z,2.90
2022-09-20T11:29:10.166Z,2.05
2022-09-20T11:31:43.252Z,1.80
2022-09-20T11:34:22.276Z,1.85
2022-09-20T11:36:58.932Z,2.35
2022-09-20T11:39:36.440Z,1.92
2022-09-20T11:42:08.196Z,2.15
2022-09-20T11:44:41.841Z,2.25
2022-09-20T11:47:42.897Z,2.47
2022-09-20T11:50:46.242Z,2.45
2022-09-20T11:53:49.455Z,2.03
2022-09-20T11:56:21.190Z,2.03
2022-09-20T11:58:53.578Z,2.25
2022-09-20T12:01:29.986Z,2.25
2022-09-20T12:04:28.224Z,2.47
2022-09-20T12:07:08.678Z,2.15
2022-09-20T12:09:42.437Z,2.05
2022-09-20T12:12:21.299Z,2.10
2022-09-20T12:14:56.750Z,1.90
2022-09-20T12:18:15.447Z,1.70
2022-09-20T12:21:15.003Z,3.22
2022-09-20T12:24:18.954Z,1.90
2022-09-20T12:26:56.208Z,2.60
2022-09-20T12:30:17.357Z,1.98
2022-09-20T12:32:59.232Z,2.00
2022-09-20T12:36:19.413Z,2.30
2022-09-20T12:39:06.496Z,1.52
2022-09-20T12:41:52.867Z,1.70
2022-09-20T12:44:33.567Z,1.95
2022-09-20T12:47:06.428Z,1.80
2022-09-20T12:49:59.841Z,2.60
2022-09-20T12:53:00.724Z,1.50
2022-09-20T12:55:46.769Z,2.08
2022-09-20T12:58:34.871Z,2.20
2022-09-20T13:01:32.854Z,2.10
2022-09-20T13:04:42.584Z,2.08
2022-09-20T13:07:44.270Z,2.40
2022-09-20T13:10:33.325Z,2.15
2022-09-20T13:13:14.409Z,2.35
2022-09-20T13:15:51.690Z,2.10
2022-09-20T13:18:22.318Z,2.30
2022-09-20T13:20:52.593Z,2.17
2022-09-20T13:23:27.207Z,2.05
2022-09-20T13:25:59.172Z,1.75
2022-09-20T13:28:42.442Z,1.80
2022-09-20T13:31:30.295Z,1.67
2022-09-20T13:34:20.835Z,2.53
2022-09-20T13:36:56.218Z,2.20
2022-09-20T13:39:30.759Z,2.65
2022-09-20T13:42:16.318Z,2.25
2022-09-20T13:44:47.591Z,2.60
2022-09-20T13:47:26.122Z,2.28
2022-09-20T13:50:01.138Z,2.05
2022-09-20T13:52:32.882Z,3.92
2022-09-20T13:55:19.655Z,2.97
2022-09-20T13:57:49.047Z,2.92
2022-09-20T14:00:19.989Z,2.97
2022-09-20T14:02:52.292Z,3.00
2022-09-20T14:05:23.674Z,2.38
2022-09-20T14:07:53.068Z,2.40
2022-09-20T14:10:32.037Z,2.58
2022-09-20T14:13:03.149Z,2.05
2022-09-20T14:15:38.897Z,2.33
2022-09-20T14:18:12.699Z,2.60
2022-09-20T14:20:43.413Z,2.05
2022-09-20T14:23:23.564Z,2.90
2022-09-20T14:26:18.609Z,2.20
2022-09-20T14:28:48.327Z,2.40
2022-09-20T14:31:36.380Z,2.55
2022-09-20T14:34:06.460Z,2.28
2022-09-20T14:36:35.634Z,2.03
2022-09-20T14:39:06.416Z,2.80
2022-09-20T14:41:39.311Z,2.10
2022-09-20T14:44:24.701Z,2.00
2022-09-20T14:46:55.242Z,2.25
2022-09-20T14:49:33.871Z,2.85
2022-09-20T14:52:35.971Z,2.65
2022-09-20T14:55:21.378Z,2.10
2022-09-20T14:57:50.430Z,3.10
2022-09-20T15:00:20.683Z,2.67
2022-09-20T15:02:52.018Z,2.90
2022-09-20T15:05:26.096Z,3.03
2022-09-20T15:07:56.475Z,2.28
2022-09-20T15:10:25.896Z,2.50
2022-09-20T15:12:54.885Z,2.40
2022-09-20T15:15:23.970Z,1.98
2022-09-20T15:17:54.370Z,1.95
2022-09-20T15:20:24.770Z,2.20
2022-09-20T15:22:54.150Z,2.28
2022-09-20T15:25:23.547Z,2.28
2022-09-20T15:27:52.771Z,2.60
2022-09-20T15:30:22.361Z,1.90
2022-09-20T15:32:51.870Z,2.05
2022-09-20T15:35:22.217Z,1.77
2022-09-20T15:37:51.403Z,1.80
2022-09-20T15:40:20.721Z,2.40
2022-09-20T15:42:52.466Z,1.80
2022-09-20T15:45:23.419Z,1.73
2022-09-20T15:47:55.082Z,2.08
2022-09-20T15:50:26.284Z,2.30
2022-09-20T15:52:59.853Z,1.67
2022-09-20T15:55:29.238Z,1.83
2022-09-20T15:57:58.365Z,2.13
2022-09-20T16:00:27.486Z,2.25
2022-09-20T16:02:56.610Z,1.80
2022-09-20T16:05:26.935Z,1.80
2022-09-20T16:07:55.914Z,2.10
2022-09-20T16:10:24.922Z,1.90
2022-09-20T16:12:53.936Z,2.25
2022-09-20T16:15:22.916Z,2.22
2022-09-20T16:18:10.259Z,2.00
2022-09-20T16:20:41.918Z,2.60
2022-09-20T16:23:11.014Z,3.42
2022-09-20T16:25:40.087Z,1.80
2022-09-20T16:28:09.227Z,3.00
2022-09-20T16:30:38.184Z,2.13
2022-09-20T16:33:09.446Z,2.47
2022-09-20T16:35:39.786Z,2.50
2022-09-20T16:38:12.917Z,2.30
2022-09-20T16:40:42.010Z,2.63
2022-09-20T16:43:11.279Z,2.40
2022-09-20T16:45:40.309Z,2.50
2022-09-20T16:48:09.764Z,2.20
2022-09-20T16:50:40.237Z,2.53
2022-09-20T16:53:09.204Z,2.38
2022-09-20T16:55:38.595Z,2.97
2022-09-20T16:58:09.067Z,2.08
2022-09-20T17:00:38.356Z,2.50
2022-09-20T17:03:08.212Z,3.30
2022-09-20T17:05:37.290Z,2.30
2022-09-20T17:08:08.559Z,2.53
2022-09-20T17:10:37.823Z,5.20
2022-09-20T17:13:07.590Z,3.55
2022-09-20T17:15:37.949Z,2.92
2022-09-20T17:18:08.801Z,3.10
2022-09-20T17:20:40.669Z,3.05
2022-09-20T17:23:10.994Z,3.05
2022-09-20T17:25:43.880Z,3.20
2022-09-20T17:28:13.635Z,2.78
2022-09-20T17:30:42.656Z,2.55
2022-09-20T17:33:11.620Z,3.20
2022-09-20T17:35:40.586Z,2.55
2022-09-20T17:38:11.922Z,2.97
2022-09-20T17:40:40.858Z,3.00
2022-09-20T17:43:12.327Z,2.95
2022-09-20T17:45:41.377Z,3.00
2022-09-20T17:48:10.696Z,2.92
2022-09-20T17:50:39.721Z,2.72
2022-09-20T17:53:12.617Z,3.55
2022-09-20T17:55:43.703Z,3.20
2022-09-20T17:58:12.695Z,3.45
2022-09-20T18:00:41.741Z,2.90
2022-09-20T18:03:10.786Z,3.10
2022-09-20T18:05:39.749Z,3.15
2022-09-20T18:08:12.819Z,2.95
2022-09-20T18:10:41.934Z,2.90
2022-09-20T18:13:13.463Z,3.15
2022-09-20T18:15:45.667Z,3.17
2022-09-20T18:18:14.644Z,3.30
2022-09-20T18:20:43.689Z,3.40
2022-09-20T18:23:13.997Z,3.95
2022-09-20T18:26:00.747Z,3.67
2022-09-20T18:28:29.882Z,3.30
2022-09-20T18:31:03.179Z,3.25
2022-09-20T18:33:33.285Z,3.90
2022-09-20T18:36:04.074Z,3.35
2022-09-20T18:38:34.398Z,3.72
2022-09-20T18:41:04.926Z,3.45
2022-09-20T18:43:35.472Z,3.58
2022-09-20T18:46:04.497Z,4.22
2022-09-20T18:48:34.453Z,3.50
2022-09-20T18:51:05.991Z,3.70
2022-09-20T18:53:38.706Z,4.47
2022-09-20T18:56:10.196Z,3.85
2022-09-20T18:58:39.981Z,4.45
2022-09-20T19:01:33.663Z,4.45
2022-09-20T19:04:21.421Z,4.30
2022-09-20T19:06:56.829Z,4.25
2022-09-20T19:09:37.310Z,4.25
2022-09-20T19:12:16.858Z,4.35
2022-09-20T19:15:14.547Z,4.25
2022-09-20T19:18:20.436Z,4.63
2022-09-20T19:21:01.708Z,5.10
2022-09-20T19:23:52.262Z,4.65
2022-09-20T19:26:26.609Z,5.22
2022-09-20T19:28:59.425Z,4.40
2022-09-20T19:31:31.575Z,5.03
2022-09-20T19:34:04.704Z,4.85
2022-09-20T19:36:44.567Z,4.40
2022-09-20T19:39:20.697Z,4.95
2022-09-20T19:42:03.910Z,5.15
2022-09-20T19:44:39.794Z,5.85
2022-09-20T19:47:22.830Z,4.75
2022-09-20T19:49:57.306Z,4.53
2022-09-20T19:52:27.935Z,4.85
2022-09-20T19:54:58.026Z,4.57
2022-09-20T19:57:38.497Z,5.20
2022-09-20T20:00:11.493Z,5.38
2022-09-20T20:02:48.838Z,5.35
2022-09-20T20:05:25.561Z,4.60
2022-09-20T20:08:13.054Z,5.50
2022-09-20T20:10:54.332Z,5.15
2022-09-20T20:13:52.556Z,5.10
2022-09-20T20:16:30.919Z,4.57
2022-09-20T20:20:01.387Z,5.80
2022-09-20T20:23:33.572Z,4.28
2022-09-20T20:26:07.575Z,5.10
2022-09-20T20:28:47.380Z,4.78
2022-09-20T20:31:19.843Z,5.32
2022-09-20T20:33:54.708Z,6.45
2022-09-20T20:36:26.092Z,5.70
2022-09-20T20:38:58.422Z,5.57
2022-09-20T20:41:31.817Z,5.70
2022-09-20T20:44:05.137Z,6.25
2022-09-20T20:46:35.915Z,5.70
2022-09-20T20:49:05.605Z,6.50
2022-09-20T20:51:34.562Z,5.60
2022-09-20T20:54:05.179Z,5.95
2022-09-20T20:56:34.687Z,5.57
2022-09-20T20:59:07.065Z,5.50
2022-09-20T21:01:39.513Z,4.60
2022-09-20T21:04:09.188Z,5.15
2022-09-20T21:06:40.563Z,5.22
2022-09-20T21:09:11.228Z,5.65
2022-09-20T21:11:43.336Z,5.72
2022-09-20T21:14:13.747Z,7.05
2022-09-20T21:16:44.220Z,5.70
2022-09-20T21:19:16.400Z,5.45
2022-09-20T21:21:47.821Z,6.07
2022-09-20T21:24:18.281Z,6.38
2022-09-20T21:26:48.455Z,5.80
2022-09-20T21:29:20.340Z,6.28
2022-09-20T21:31:49.467Z,6.53
2022-09-20T21:34:18.399Z,5.30
2022-09-20T21:36:47.407Z,6.53
2022-09-20T21:39:16.339Z,6.35
2022-09-20T21:41:48.685Z,7.20
2022-09-20T21:44:20.414Z,6.30
2022-09-20T21:46:49.987Z,5.85
2022-09-20T21:49:18.922Z,6.70
2022-09-20T21:51:50.051Z,5.68
2022-09-20T21:54:19.025Z,6.60
2022-09-20T21:56:48.990Z,6.38
2022-09-20T21:59:20.399Z,7.10
2022-09-20T22:01:50.335Z,6.47
2022-09-20T22:04:19.396Z,6.63
2022-09-20T22:06:48.503Z,7.05
2022-09-20T22:09:19.199Z,6.35
2022-09-20T22:11:50.006Z,5.55
2022-09-20T22:14:20.650Z,5.80
2022-09-20T22:16:51.150Z,6.07
2022-09-20T22:19:20.856Z,6.55
2022-09-20T22:21:51.756Z,6.32
2022-09-20T22:24:20.857Z,6.60
2022-09-20T22:26:51.597Z,6.45
2022-09-20T22:29:22.201Z,6.45
2022-09-20T22:31:51.465Z,5.63
2022-09-20T22:34:23.601Z,5.43
2022-09-20T22:36:53.816Z,6.63
2022-09-20T22:39:22.834Z,6.80
2022-09-20T22:41:52.533Z,5.82
2022-09-20T22:44:22.836Z,5.88
2022-09-20T22:46:51.994Z,5.32
2022-09-20T22:49:21.196Z,6.60
2022-09-20T22:51:50.138Z,5.60
2022-09-20T22:54:19.069Z,6.13
2022-09-20T22:56:48.037Z,5.45
2022-09-20T22:59:17.180Z,5.43
2022-09-20T23:01:49.247Z,6.68
2022-09-20T23:04:22.214Z,6.05
2022-09-20T23:06:54.793Z,5.85
2022-09-20T23:09:27.530Z,5.20
2022-09-20T23:11:56.966Z,5.82
2022-09-20T23:14:25.941Z,6.50
2022-09-20T23:16:56.301Z,5.90
2022-09-20T23:19:25.619Z,6.65
2022-09-20T23:21:54.545Z,6.00
2022-09-20T23:26:52.842Z,5.90
2022-09-20T23:29:22.473Z,5.23
2022-09-20T23:31:51.528Z,5.47
2022-09-20T23:34:21.790Z,5.85
2022-09-20T23:36:50.749Z,6.00
2022-09-20T23:39:19.753Z,6.53
2022-09-20T23:41:51.290Z,6.30
2022-09-20T23:44:20.593Z,5.80
2022-09-20T23:46:49.669Z,4.93
2022-09-20T23:49:18.925Z,6.05
2022-09-20T23:51:49.168Z,5.35
2022-09-20T23:54:18.236Z,5.45
2022-09-20T23:56:47.577Z,5.35
2022-09-20T23:59:16.507Z,5.78
